Terminal Aerodrome Forecast
Issued by NWS

Home | Current Version | Previous Version | Graphics & Text | Print | Product List | Glossary On
Versions: 1 2 3 4 5 6 7 8 9 10 11 12 13 14 15 16 17 18 19 20 21 22 23 24 25
388
FTUS43 KGRB 192339
TAFCWA
TAF
KCWA 192339Z 2000/2024 08008KT P6SM BKN120
     FM201000 09010KT P6SM BKN060
     FM201300 09014G23KT P6SM SCT025 OVC050
      TEMPO 2015/2018 5SM -SHRA BKN025
     FM201800 08012G19KT 3SM RA BR OVC008=

USA.gov is the U.S. government's official web portal to all federal, state and local government web resources and services.